Time;durP1;ratioP1;P1;durP2;ratioP2;P2;SDS_P1;SDS_P2;PMS_P1;PMS_P2;Temp;Humidity;BMP_temperature;BMP_pressure;BME280_temperature;BME280_humidity;BME280_pressure;Samples;Min_cycle;Max_cycle;Signal;HPM_P1;HPM_P2
2021/03/09 00:00:45;;;;;;;;;;;6.70;80.80;;;;;;6226238;23;19903;-83
2021/03/09 00:03:10;;;;;;;;;;;6.80;80.90;;;;;;6225259;23;19904;-83
2021/03/09 00:05:35;;;;;;;;;;;6.80;81.00;;;;;;6224478;23;19915;-83
2021/03/09 00:08:01;;;;;;;;;;;6.80;81.30;;;;;;6224278;23;19904;-82
2021/03/09 00:10:26;;;;;;;;;;;6.80;81.40;;;;;;6201111;23;19927;-83
2021/03/09 00:12:54;;;;;;;;;;;6.80;81.50;;;;;;6227553;23;19904;-83
2021/03/09 00:15:29;;;;;;;;;;;6.70;81.50;;;;;;6226867;23;19911;-83
2021/03/09 00:17:55;;;;;;;;;;;6.70;81.50;;;;;;6227743;23;19920;-83
2021/03/09 00:20:23;;;;;;;;;;;6.70;81.60;;;;;;6201630;23;20601;-83
2021/03/09 00:22:53;;;;;;;;;;;6.70;81.70;;;;;;6229431;23;19911;-83
2021/03/09 00:25:26;;;;;;;;;;;6.70;81.90;;;;;;6198908;23;19911;-82
2021/03/09 00:27:52;;;;;;;;;;;6.70;82.00;;;;;;6201853;23;19914;-83
2021/03/09 00:30:18;;;;;;;;;;;6.70;82.30;;;;;;6199789;23;19904;-82
2021/03/09 00:32:49;;;;;;;;;;;6.60;82.20;;;;;;6201251;23;19911;-83
2021/03/09 00:35:14;;;;;;;;;;;6.70;82.40;;;;;;6200522;23;19904;-83
2021/03/09 00:37:47;;;;;;;;;;;6.70;82.60;;;;;;6200254;23;20276;-83
2021/03/09 00:40:13;;;;;;;;;;;6.70;82.70;;;;;;6227909;23;19911;-82
2021/03/09 00:42:38;;;;;;;;;;;6.70;82.90;;;;;;6226180;23;19904;-83
2021/03/09 00:45:04;;;;;;;;;;;6.70;83.00;;;;;;6199458;23;19919;-83
2021/03/09 00:47:30;;;;;;;;;;;6.60;83.00;;;;;;6226765;23;19908;-82
2021/03/09 00:49:55;;;;;;;;;;;6.60;83.20;;;;;;6227412;23;20327;-83
2021/03/09 00:52:21;;;;;;;;;;;6.60;83.30;;;;;;6226986;23;19904;-83
2021/03/09 00:54:46;;;;;;;;;;;6.60;83.50;;;;;;6200810;23;19904;-82
2021/03/09 00:57:12;;;;;;;;;;;6.60;83.70;;;;;;6229818;23;19927;-83
2021/03/09 00:59:40;;;;;;;;;;;6.60;84.00;;;;;;6199825;23;20281;-82
2021/03/09 01:02:05;;;;;;;;;;;6.60;84.20;;;;;;6227732;23;19948;-83
2021/03/09 01:04:31;;;;;;;;;;;6.60;84.40;;;;;;6200192;23;19904;-82
2021/03/09 01:06:58;;;;;;;;;;;6.60;84.50;;;;;;6227013;23;19908;-83
2021/03/09 01:09:26;;;;;;;;;;;6.60;84.70;;;;;;6201294;23;19911;-83
2021/03/09 01:11:52;;;;;;;;;;;6.60;84.90;;;;;;6226904;23;19911;-83
2021/03/09 01:14:17;;;;;;;;;;;6.60;85.10;;;;;;6228168;23;20250;-82
2021/03/09 01:16:43;;;;;;;;;;;6.60;85.20;;;;;;6226444;23;19904;-83
2021/03/09 01:19:08;;;;;;;;;;;6.60;85.20;;;;;;6200604;23;19904;-83
2021/03/09 01:21:41;;;;;;;;;;;6.60;85.30;;;;;;6227849;23;19911;-83
2021/03/09 01:24:07;;;;;;;;;;;6.60;85.30;;;;;;6226581;23;19904;-82
2021/03/09 01:26:34;;;;;;;;;;;6.60;85.40;;;;;;6200450;23;19908;-83
2021/03/09 01:29:02;;;;;;;;;;;6.60;85.40;;;;;;6224623;23;19904;-82
2021/03/09 01:31:28;;;;;;;;;;;6.60;85.50;;;;;;6227641;23;20337;-82
2021/03/09 01:34:01;;;;;;;;;;;6.60;85.50;;;;;;6200006;23;19944;-83
2021/03/09 01:36:29;;;;;;;;;;;6.60;85.40;;;;;;6200018;23;19952;-82
2021/03/09 01:38:54;;;;;;;;;;;6.60;85.50;;;;;;6227000;23;19916;-83
2021/03/09 01:41:20;;;;;;;;;;;6.50;85.60;;;;;;6225259;23;19978;-83
2021/03/09 01:43:45;;;;;;;;;;;6.50;85.80;;;;;;6227626;23;19931;-83
2021/03/09 01:46:11;;;;;;;;;;;6.50;85.90;;;;;;6198773;23;19931;-82
2021/03/09 01:48:41;;;;;;;;;;;6.50;86.10;;;;;;6199526;23;19904;-83
2021/03/09 01:51:09;;;;;;;;;;;6.50;86.30;;;;;;6199267;23;19904;-83
2021/03/09 01:53:35;;;;;;;;;;;6.50;86.50;;;;;;6199996;23;20255;-82
2021/03/09 01:56:00;;;;;;;;;;;6.50;86.50;;;;;;6200212;23;19911;-83
2021/03/09 01:58:29;;;;;;;;;;;6.50;86.60;;;;;;6222859;23;19919;-82
2021/03/09 02:01:01;;;;;;;;;;;6.60;86.90;;;;;;6225970;23;19911;-83
2021/03/09 02:03:29;;;;;;;;;;;6.50;87.00;;;;;;6223570;23;19936;-83
2021/03/09 02:05:55;;;;;;;;;;;6.50;87.10;;;;;;6199330;23;19907;-83
2021/03/09 02:08:20;;;;;;;;;;;6.50;87.40;;;;;;6199079;23;19904;-83
2021/03/09 02:10:46;;;;;;;;;;;6.50;87.80;;;;;;6225988;23;19927;-83
2021/03/09 02:13:33;;;;;;;;;;;6.40;88.10;;;;;;6226556;23;19912;-83
2021/03/09 02:16:03;;;;;;;;;;;6.40;88.30;;;;;;6197464;23;19995;-83
2021/03/09 02:18:35;;;;;;;;;;;6.30;88.50;;;;;;6200192;23;19904;-83
2021/03/09 02:21:15;;;;;;;;;;;6.30;88.90;;;;;;6225045;23;19904;-83
2021/03/09 02:23:49;;;;;;;;;;;6.30;89.20;;;;;;6226441;23;19904;-83
2021/03/09 02:26:29;;;;;;;;;;;6.30;89.30;;;;;;6225782;23;19985;-83
2021/03/09 02:29:00;;;;;;;;;;;6.30;89.50;;;;;;6227469;23;19911;-83
2021/03/09 02:31:27;;;;;;;;;;;6.20;89.70;;;;;;6235991;23;19908;-83
2021/03/09 02:33:55;;;;;;;;;;;6.20;90.00;;;;;;6203197;23;19995;-83
2021/03/09 02:36:23;;;;;;;;;;;6.20;90.20;;;;;;6227330;23;19904;-83
2021/03/09 02:38:56;;;;;;;;;;;6.10;90.40;;;;;;6226329;23;19916;-82
2021/03/09 02:41:22;;;;;;;;;;;6.10;90.60;;;;;;6228829;23;19924;-83
2021/03/09 02:43:49;;;;;;;;;;;6.10;90.80;;;;;;6226653;23;19907;-83
2021/03/09 02:46:18;;;;;;;;;;;6.00;90.90;;;;;;6226187;23;19986;-84
2021/03/09 02:48:44;;;;;;;;;;;6.00;91.10;;;;;;6202143;23;19908;-83
2021/03/09 02:51:10;;;;;;;;;;;6.00;91.30;;;;;;6227419;23;19946;-83
2021/03/09 02:53:45;;;;;;;;;;;6.00;91.50;;;;;;6228582;23;19908;-83
2021/03/09 02:56:14;;;;;;;;;;;5.90;91.70;;;;;;6227137;23;20163;-82
2021/03/09 02:58:43;;;;;;;;;;;5.90;91.80;;;;;;6202678;23;20357;-83
2021/03/09 03:01:09;;;;;;;;;;;5.90;92.00;;;;;;6228690;23;20302;-82
2021/03/09 03:03:37;;;;;;;;;;;5.90;92.20;;;;;;6202934;23;19987;-83
2021/03/09 03:06:03;;;;;;;;;;;5.90;92.30;;;;;;6201424;23;19908;-83
2021/03/09 03:08:39;;;;;;;;;;;;;;;;;;;;;
2021/03/09 03:11:10;;;;;;;;;;;5.80;92.90;;;;;;6228898;23;20006;-83
2021/03/09 03:13:43;;;;;;;;;;;5.80;93.40;;;;;;6201985;23;19960;-83
2021/03/09 03:16:10;;;;;;;;;;;5.80;93.20;;;;;;6228349;23;19958;-83
2021/03/09 03:18:40;;;;;;;;;;;5.80;93.50;;;;;;6228419;23;20330;-82
2021/03/09 03:21:16;;;;;;;;;;;5.80;93.80;;;;;;6201584;23;19908;-83
2021/03/09 03:23:43;;;;;;;;;;;5.70;94.10;;;;;;6227634;23;19904;-83
2021/03/09 03:26:16;;;;;;;;;;;5.70;94.30;;;;;;6200096;23;19915;-83
2021/03/09 03:38:05;;;;;;;;;;;5.60;95.20;;;;;;6216301;23;19915;-83
2021/03/09 03:40:42;;;;;;;;;;;5.50;95.30;;;;;;6227200;23;20289;-83
2021/03/09 03:52:38;;;;;;;;;;;5.40;96.60;;;;;;6223943;23;19904;-83
2021/03/09 03:55:18;;;;;;;;;;;5.30;96.70;;;;;;6210483;23;19904;-83
2021/03/09 03:58:08;;;;;;;;;;;5.30;97.20;;;;;;6229309;23;19927;-83
2021/03/09 04:00:33;;;;;;;;;;;5.30;97.70;;;;;;6228697;23;19918;-83
2021/03/09 04:03:01;;;;;;;;;;;5.20;97.90;;;;;;6203957;23;19936;-83
2021/03/09 04:05:37;;;;;;;;;;;5.20;98.40;;;;;;6202767;23;19924;-82
2021/03/09 04:08:03;;;;;;;;;;;5.20;98.60;;;;;;6227847;23;19951;-83
2021/03/09 04:10:30;;;;;;;;;;;5.10;98.80;;;;;;6229918;23;19954;-83
2021/03/09 04:12:56;;;;;;;;;;;5.10;99.20;;;;;;6228559;23;19927;-82
2021/03/09 04:15:24;;;;;;;;;;;5.10;99.50;;;;;;6227107;23;19907;-83
2021/03/09 04:17:51;;;;;;;;;;;5.10;99.80;;;;;;6227598;23;19904;-83
2021/03/09 04:20:20;;;;;;;;;;;5.00;99.90;;;;;;6228029;23;19939;-83
2021/03/09 04:22:48;;;;;;;;;;;5.00;99.90;;;;;;6227945;23;19926;-83
2021/03/09 04:25:14;;;;;;;;;;;5.00;99.90;;;;;;6227027;23;19911;-83
2021/03/09 04:27:39;;;;;;;;;;;5.00;99.90;;;;;;6229045;23;19908;-83
2021/03/09 04:30:05;;;;;;;;;;;5.00;99.90;;;;;;6226263;23;19912;-82
2021/03/09 04:32:33;;;;;;;;;;;4.90;99.90;;;;;;6228817;23;19982;-83
2021/03/09 04:35:02;;;;;;;;;;;4.90;99.90;;;;;;6227234;23;20346;-83
2021/03/09 04:37:28;;;;;;;;;;;4.90;99.90;;;;;;6228168;23;19939;-83
2021/03/09 04:39:58;;;;;;;;;;;4.90;99.90;;;;;;6202038;23;19919;-83
2021/03/09 04:42:34;;;;;;;;;;;4.90;99.90;;;;;;6200500;23;19904;-83
2021/03/09 04:45:02;;;;;;;;;;;4.80;99.90;;;;;;6226364;23;19904;-84
2021/03/09 04:47:30;;;;;;;;;;;4.80;99.90;;;;;;6226468;23;19908;-84
2021/03/09 04:50:11;;;;;;;;;;;;;;;;;;;;;
2021/03/09 05:02:00;;;;;;;;;;;4.80;99.90;;;;;;6214707;23;19911;-83
2021/03/09 05:08:14;;;;;;;;;;;4.80;99.90;;;;;;6217230;23;19934;-83
2021/03/09 05:19:34;;;;;;;;;;;4.80;99.90;;;;;;6210759;23;19944;-83
2021/03/09 05:31:29;;;;;;;;;;;4.70;99.90;;;;;;6215506;23;19904;-83
2021/03/09 05:34:35;;;;;;;;;;;4.70;99.90;;;;;;6199781;23;19904;-83
2021/03/09 05:37:23;;;;;;;;;;;4.70;99.90;;;;;;6226536;23;19926;-83
2021/03/09 05:46:05;;;;;;;;;;;4.70;99.90;;;;;;6208479;23;19935;-83
2021/03/09 06:01:19;;;;;;;;;;;4.60;99.90;;;;;;6216313;23;19924;-83
2021/03/09 06:19:17;;;;;;;;;;;4.50;99.90;;;;;;6214281;23;19914;-83
2021/03/09 06:22:01;;;;;;;;;;;;;;;;;;;;;
2021/03/09 06:39:46;;;;;;;;;;;4.50;99.90;;;;;;6194467;23;19912;-83
2021/03/09 15:53:01;;;;;;;;;;;;;;;;;;;;;
2021/03/09 16:15:33;;;;;;;;;;;8.60;99.90;;;;;;6129439;23;19905;-82
2021/03/09 16:46:51;;;;;;;;;;;;;;;;;;;;;
2021/03/09 18:00:35;;;;;;;;;;;;;;;;;;;;;
2021/03/09 18:05:58;;;;;;;;;;;;;;;;;;;;;
2021/03/09 18:09:05;;;;;;;;;;;7.30;99.90;;;;;;6221277;23;20358;-81
2021/03/09 18:17:31;;;;;;;;;;;7.30;99.90;;;;;;6210114;23;19936;-81
2021/03/09 18:19:56;;;;;;;;;;;7.30;99.90;;;;;;6220959;23;19931;-81
2021/03/09 18:22:23;;;;;;;;;;;7.30;99.90;;;;;;6221531;23;20323;-81
2021/03/09 18:24:50;;;;;;;;;;;7.20;99.90;;;;;;6220308;23;19935;-82
2021/03/09 18:27:15;;;;;;;;;;;7.20;99.90;;;;;;6223691;23;20471;-81
2021/03/09 18:29:41;;;;;;;;;;;7.20;99.90;;;;;;6226116;23;19904;-81
2021/03/09 18:32:06;;;;;;;;;;;7.20;99.90;;;;;;6223015;23;20286;-81
2021/03/09 18:34:32;;;;;;;;;;;7.20;99.90;;;;;;6222400;23;19935;-81
2021/03/09 18:36:57;;;;;;;;;;;7.20;99.90;;;;;;6222618;23;19978;-81
2021/03/09 18:39:23;;;;;;;;;;;7.10;99.90;;;;;;6226102;23;19904;-81
2021/03/09 18:41:48;;;;;;;;;;;7.10;99.90;;;;;;6223427;23;19903;-81
2021/03/09 18:44:14;;;;;;;;;;;7.10;99.90;;;;;;6220154;23;19927;-81
2021/03/09 18:46:39;;;;;;;;;;;7.10;99.90;;;;;;6215318;23;19908;-81
2021/03/09 18:49:05;;;;;;;;;;;7.10;99.90;;;;;;6221242;23;19926;-82
2021/03/09 18:51:30;;;;;;;;;;;7.10;99.90;;;;;;6221142;23;19911;-82
2021/03/09 18:53:56;;;;;;;;;;;7.00;99.90;;;;;;6222050;23;19912;-79
2021/03/09 18:56:21;;;;;;;;;;;7.00;99.90;;;;;;6221047;23;20293;-82
2021/03/09 18:58:47;;;;;;;;;;;7.00;99.90;;;;;;6195645;23;19994;-82
2021/03/09 19:01:13;;;;;;;;;;;7.00;99.90;;;;;;6221043;23;19904;-82
2021/03/09 19:03:38;;;;;;;;;;;7.00;99.90;;;;;;6221429;23;19904;-82
2021/03/09 19:06:04;;;;;;;;;;;7.00;99.90;;;;;;6219703;23;20317;-82
2021/03/09 19:08:29;;;;;;;;;;;7.00;99.90;;;;;;6221562;23;19935;-83
2021/03/09 19:10:55;;;;;;;;;;;6.90;99.90;;;;;;6221169;23;19915;-83
2021/03/09 19:13:20;;;;;;;;;;;6.90;99.90;;;;;;6221754;23;20238;-81
2021/03/09 19:15:46;;;;;;;;;;;7.00;99.90;;;;;;6221410;23;19911;-81
2021/03/09 19:18:12;;;;;;;;;;;6.90;99.90;;;;;;6221562;23;19924;-82
2021/03/09 19:20:37;;;;;;;;;;;6.90;99.90;;;;;;6221854;23;19991;-81
2021/03/09 19:23:03;;;;;;;;;;;6.90;99.90;;;;;;6220898;23;20319;-81
2021/03/09 19:25:28;;;;;;;;;;;6.90;99.90;;;;;;6220102;23;19923;-81
2021/03/09 19:27:54;;;;;;;;;;;6.90;99.90;;;;;;6220480;23;19958;-80
2021/03/09 19:30:20;;;;;;;;;;;6.90;99.90;;;;;;6220136;23;19962;-80
2021/03/09 19:32:45;;;;;;;;;;;6.90;99.90;;;;;;6221808;23;19908;-81
2021/03/09 19:35:13;;;;;;;;;;;6.90;99.90;;;;;;6219768;23;19904;-81
2021/03/09 19:37:41;;;;;;;;;;;6.90;99.90;;;;;;6194616;23;19904;-81
2021/03/09 19:40:07;;;;;;;;;;;6.90;99.90;;;;;;6227768;23;19948;-80
2021/03/09 19:42:32;;;;;;;;;;;6.90;99.90;;;;;;6237014;23;19927;-81
2021/03/09 19:44:58;;;;;;;;;;;6.90;99.90;;;;;;6233378;23;19947;-81
2021/03/09 19:47:24;;;;;;;;;;;6.90;99.90;;;;;;6221439;23;19907;-81
2021/03/09 19:49:50;;;;;;;;;;;6.90;99.90;;;;;;6219963;23;19910;-81
2021/03/09 19:52:15;;;;;;;;;;;6.90;99.90;;;;;;6220655;23;19911;-81
2021/03/09 19:54:41;;;;;;;;;;;6.90;99.90;;;;;;6220924;23;19911;-81
2021/03/09 19:57:07;;;;;;;;;;;6.90;99.90;;;;;;6221615;23;19951;-81
2021/03/09 19:59:32;;;;;;;;;;;6.90;99.90;;;;;;6220956;23;19904;-82
2021/03/09 20:01:58;;;;;;;;;;;6.90;99.90;;;;;;6219951;23;19917;-82
2021/03/09 20:04:24;;;;;;;;;;;7.00;99.90;;;;;;6193155;23;19908;-82
2021/03/09 20:06:49;;;;;;;;;;;6.90;99.90;;;;;;6194377;23;19915;-82
2021/03/09 20:09:15;;;;;;;;;;;6.90;99.90;;;;;;6221890;23;19949;-82
2021/03/09 20:11:42;;;;;;;;;;;6.90;99.90;;;;;;6221384;23;19911;-82
2021/03/09 20:14:08;;;;;;;;;;;6.90;99.90;;;;;;6193819;23;19983;-79
2021/03/09 20:16:34;;;;;;;;;;;6.90;99.90;;;;;;6221229;23;19904;-82
2021/03/09 20:19:00;;;;;;;;;;;6.90;99.90;;;;;;6194660;23;19904;-82
2021/03/09 20:21:25;;;;;;;;;;;6.90;99.90;;;;;;6221060;23;19911;-82
2021/03/09 20:23:51;;;;;;;;;;;6.90;99.90;;;;;;6219927;23;19911;-82
2021/03/09 20:26:17;;;;;;;;;;;6.90;99.90;;;;;;6220861;23;20442;-81
2021/03/09 20:28:47;;;;;;;;;;;6.90;99.90;;;;;;6221112;23;19904;-82
2021/03/09 20:31:16;;;;;;;;;;;6.90;99.90;;;;;;6223114;23;19904;-82
2021/03/09 20:33:43;;;;;;;;;;;6.90;99.90;;;;;;6195656;23;19911;-82
2021/03/09 20:36:09;;;;;;;;;;;6.90;99.90;;;;;;6221413;23;19911;-81
2021/03/09 20:38:34;;;;;;;;;;;6.90;99.90;;;;;;6223762;23;19908;-81
2021/03/09 20:41:00;;;;;;;;;;;7.00;99.90;;;;;;6221957;23;19960;-81
2021/03/09 20:43:26;;;;;;;;;;;7.00;99.90;;;;;;6193806;23;19915;-81
2021/03/09 20:45:51;;;;;;;;;;;7.00;99.90;;;;;;6220447;23;19904;-81
2021/03/09 20:48:17;;;;;;;;;;;7.00;99.90;;;;;;6221997;23;19970;-81
2021/03/09 20:50:43;;;;;;;;;;;7.00;99.90;;;;;;6222584;23;20323;-81
2021/03/09 20:53:08;;;;;;;;;;;7.00;99.90;;;;;;6221622;23;19904;-81
2021/03/09 20:55:34;;;;;;;;;;;7.00;99.90;;;;;;6223476;23;19904;-81
2021/03/09 20:57:59;;;;;;;;;;;7.00;99.90;;;;;;6226262;23;20320;-81
2021/03/09 21:00:25;;;;;;;;;;;7.00;99.90;;;;;;6222162;23;19932;-81
2021/03/09 21:02:51;;;;;;;;;;;7.10;99.90;;;;;;6221108;23;20323;-81
2021/03/09 21:05:17;;;;;;;;;;;7.00;99.90;;;;;;6193889;23;19914;-81
2021/03/09 21:07:43;;;;;;;;;;;7.00;99.90;;;;;;6221663;23;19934;-81
2021/03/09 21:10:09;;;;;;;;;;;7.00;99.90;;;;;;6220937;23;20011;-82
2021/03/09 21:12:34;;;;;;;;;;;7.00;99.90;;;;;;6221723;23;19904;-82
2021/03/09 21:15:00;;;;;;;;;;;7.00;99.90;;;;;;6220141;23;19904;-81
2021/03/09 21:17:26;;;;;;;;;;;6.90;99.90;;;;;;6193709;23;20495;-82
2021/03/09 21:19:51;;;;;;;;;;;6.90;99.90;;;;;;6221135;23;20357;-82
2021/03/09 21:22:17;;;;;;;;;;;6.90;99.90;;;;;;6222800;23;19983;-83
2021/03/09 21:24:43;;;;;;;;;;;6.90;99.90;;;;;;6220182;23;19908;-82
2021/03/09 21:27:08;;;;;;;;;;;6.90;99.90;;;;;;6221560;23;19912;-82
2021/03/09 21:29:34;;;;;;;;;;;6.90;99.90;;;;;;6221429;23;19931;-81
2021/03/09 21:31:59;;;;;;;;;;;6.80;99.90;;;;;;6221210;23;19954;-82
2021/03/09 21:34:25;;;;;;;;;;;6.80;99.90;;;;;;6220416;23;20284;-82
2021/03/09 21:36:50;;;;;;;;;;;6.80;99.90;;;;;;6222169;23;19904;-82
2021/03/09 21:39:16;;;;;;;;;;;6.80;99.90;;;;;;6220470;23;19951;-81
2021/03/09 21:41:41;;;;;;;;;;;6.80;99.90;;;;;;6221566;23;19943;-84
2021/03/09 21:44:07;;;;;;;;;;;6.80;99.90;;;;;;6194457;23;19966;-82
2021/03/09 21:46:33;;;;;;;;;;;6.80;99.90;;;;;;6221446;23;19904;-82
2021/03/09 21:48:58;;;;;;;;;;;6.80;99.90;;;;;;6222582;23;19904;-82
2021/03/09 21:51:23;;;;;;;;;;;6.80;99.90;;;;;;6221947;23;19904;-83
2021/03/09 21:53:49;;;;;;;;;;;6.80;99.90;;;;;;6222938;23;19904;-83
2021/03/09 21:56:14;;;;;;;;;;;6.80;99.90;;;;;;6222458;23;19912;-83
2021/03/09 21:58:40;;;;;;;;;;;6.70;99.90;;;;;;6222087;23;19911;-83
2021/03/09 22:01:06;;;;;;;;;;;6.70;99.90;;;;;;6195345;23;19947;-82
2021/03/09 22:03:35;;;;;;;;;;;6.70;99.90;;;;;;6222693;23;19991;-82
2021/03/09 22:06:00;;;;;;;;;;;6.70;99.90;;;;;;6220871;23;19911;-81
2021/03/09 22:08:26;;;;;;;;;;;6.70;99.90;;;;;;6221530;23;19908;-82
2021/03/09 22:10:51;;;;;;;;;;;6.60;99.90;;;;;;6196874;23;19904;-81
2021/03/09 22:13:17;;;;;;;;;;;6.60;99.90;;;;;;6220385;23;19908;-81
2021/03/09 22:15:42;;;;;;;;;;;6.70;99.90;;;;;;6220807;23;19904;-81
2021/03/09 22:18:08;;;;;;;;;;;6.70;99.90;;;;;;6220638;23;19911;-81
2021/03/09 22:20:35;;;;;;;;;;;6.70;99.90;;;;;;6221696;23;19950;-83
2021/03/09 22:23:01;;;;;;;;;;;6.70;99.90;;;;;;6221239;23;20286;-82
2021/03/09 22:25:26;;;;;;;;;;;6.70;99.90;;;;;;6222210;23;19904;-82
2021/03/09 22:27:52;;;;;;;;;;;6.70;99.90;;;;;;6220323;23;19915;-82
2021/03/09 22:30:17;;;;;;;;;;;6.70;99.90;;;;;;6220858;23;19907;-82
2021/03/09 22:32:43;;;;;;;;;;;6.70;99.90;;;;;;6194336;23;19911;-82
2021/03/09 22:35:09;;;;;;;;;;;6.70;99.90;;;;;;6194947;23;19908;-83
2021/03/09 22:37:34;;;;;;;;;;;6.70;99.90;;;;;;6222659;23;19927;-83
2021/03/09 22:40:00;;;;;;;;;;;6.70;99.90;;;;;;6223563;23;19904;-83
2021/03/09 22:42:27;;;;;;;;;;;6.60;99.90;;;;;;6223092;23;19923;-82
2021/03/09 22:44:55;;;;;;;;;;;6.60;99.90;;;;;;6220772;23;19904;-83
2021/03/09 22:47:23;;;;;;;;;;;6.60;99.90;;;;;;6221481;23;19916;-83
2021/03/09 22:49:49;;;;;;;;;;;6.60;99.90;;;;;;6221986;23;19979;-83
2021/03/09 22:52:17;;;;;;;;;;;6.60;99.90;;;;;;6223408;23;19904;-83
2021/03/09 22:54:42;;;;;;;;;;;6.60;99.90;;;;;;6221646;23;19911;-83
2021/03/09 22:57:08;;;;;;;;;;;6.60;99.90;;;;;;6222312;23;19987;-83
2021/03/09 22:59:33;;;;;;;;;;;6.60;99.90;;;;;;6222591;23;20267;-83
2021/03/09 23:01:59;;;;;;;;;;;6.60;99.90;;;;;;6223333;23;19928;-83
2021/03/09 23:04:24;;;;;;;;;;;6.70;99.90;;;;;;6220267;23;20478;-83
2021/03/09 23:06:50;;;;;;;;;;;6.70;99.90;;;;;;6221975;23;19908;-82
2021/03/09 23:09:16;;;;;;;;;;;6.70;99.90;;;;;;6222011;23;19935;-83
2021/03/09 23:27:58;;;;;;;;;;;6.70;99.90;;;;;;5138843;27;19912;-81
2021/03/09 23:34:11;;;;;;;;;;;6.70;99.90;;;;;;5106183;28;20426;-81
2021/03/09 23:36:39;;;;;;;;;;;6.70;99.90;;;;;;5097940;28;20394;-81
2021/03/09 23:39:15;;;;;;;;;;;;;;;;;;;;;
2021/03/09 23:41:41;;;;;;;;;;;6.60;99.90;;;;;;5096100;28;20003;-85
2021/03/09 23:44:09;;;;;;;;;;;6.60;99.90;;;;;;5078545;28;20409;-80
2021/03/09 23:46:34;;;;;;;;;;;6.60;99.90;;;;;;5095952;28;19921;-81
2021/03/09 23:49:00;;;;;;;;;;;6.60;99.90;;;;;;5096394;28;20274;-82
2021/03/09 23:51:25;;;;;;;;;;;6.50;99.90;;;;;;5094397;28;19959;-81
2021/03/09 23:53:51;;;;;;;;;;;6.50;99.90;;;;;;5096663;28;20362;-82
2021/03/09 23:56:16;;;;;;;;;;;6.60;99.90;;;;;;5093691;28;19995;-81
2021/03/09 23:58:42;;;;;;;;;;;6.60;99.90;;;;;;5095711;28;20432;-84
